SKCC/CUC METAR and TAF weather

Enter ICAO airport designator
Station Type Date Time Source
SKCC METAR 2021/05/12 01:00 UTC NOAA

SKCC 120100Z 19010KT 9999 SCT018 SCT080 27/19 Q1013 RMK A2992


Station Type Date Time Source
SKCC Decoded METAR 2021/05/12 01:00 UTC NOAA

Cucuta / Camilo Daza, Colombia (SKCC) 07-56N 072-31W 317M
May 11, 2021 - 09:00 PM EDT / 2021.05.12 0100 UTC
Wind: from the S (190 degrees) at 12 MPH (10 KT):0
Visibility: greater than 7 mile(s):0
Sky conditions: partly cloudy
Temperature: 80 F (27 C)
Dew Point: 66 F (19 C)
Relative Humidity: 61%
Pressure (altimeter): 29.91 in. Hg (1013 hPa)
ob: SKCC 120100Z 19010KT 9999 SCT018 SCT080 27/19 Q1013 RMK A2992
cycle: 1

Station Type Date Time Source
SKCC TAF 2021/05/11 18:30 UTC NOAA

TAF SKCC 111630Z 1118/1218 15018KT 9999 SCT023 SCT090
BECMG 1121/1123 08005KT
TEMPO 1123/1202 SCT018TCU
TEMPO 1210/1212 5000 BCFG SCT010 TX31/1119Z TN22/1210Z

Example: see airport list